createdAt,value
2022-12-26T00:00:28.892Z,35.30
2022-12-26T00:01:28.936Z,30.90
2022-12-26T00:02:29.171Z,31.60
2022-12-26T00:03:29.264Z,30.40
2022-12-26T00:04:52.207Z,29.90
2022-12-26T00:05:30.447Z,29.70
2022-12-26T00:06:29.604Z,29.20
2022-12-26T00:07:29.743Z,30.00
2022-12-26T00:08:29.919Z,28.50
2022-12-26T00:09:30.065Z,29.20
2022-12-26T00:10:30.246Z,28.50
2022-12-26T00:11:30.389Z,29.00
2022-12-26T00:12:30.613Z,29.40
2022-12-26T00:13:39.465Z,29.20
2022-12-26T00:14:31.746Z,30.10
2022-12-26T00:15:30.903Z,29.40
2022-12-26T00:16:31.073Z,30.20
2022-12-26T00:17:31.227Z,29.50
2022-12-26T00:18:31.378Z,30.00
2022-12-26T00:19:31.519Z,29.30
2022-12-26T00:20:31.661Z,29.40
2022-12-26T00:21:31.841Z,30.50
2022-12-26T00:22:31.883Z,28.60
2022-12-26T00:23:32.029Z,29.50
2022-12-26T00:24:32.175Z,29.80
2022-12-26T00:25:32.347Z,27.10
2022-12-26T00:26:32.520Z,28.40
2022-12-26T00:27:32.651Z,28.10
2022-12-26T00:28:32.838Z,28.30
2022-12-26T00:29:33.937Z,28.40
2022-12-26T00:30:33.093Z,27.90
2022-12-26T00:31:33.260Z,27.80
2022-12-26T00:32:33.410Z,27.10
2022-12-26T00:33:33.568Z,27.90
2022-12-26T00:34:33.695Z,28.40
2022-12-26T00:35:33.840Z,27.60
2022-12-26T00:36:34.005Z,28.40
2022-12-26T00:37:34.140Z,28.80
2022-12-26T00:38:34.280Z,28.30
2022-12-26T00:39:34.480Z,28.30
2022-12-26T00:40:34.493Z,28.20
2022-12-26T00:41:34.650Z,28.00
2022-12-26T00:42:34.799Z,28.10
2022-12-26T00:43:34.937Z,27.30
2022-12-26T00:44:35.120Z,28.10
2022-12-26T00:45:35.269Z,28.30
2022-12-26T00:46:35.494Z,27.40
2022-12-26T00:47:35.515Z,27.90
2022-12-26T00:48:35.634Z,27.10
2022-12-26T00:50:13.222Z,27.20
2022-12-26T00:50:36.909Z,25.70
2022-12-26T00:51:36.109Z,26.40
2022-12-26T00:52:36.202Z,27.60
2022-12-26T00:53:36.223Z,27.50
2022-12-26T00:54:36.396Z,26.10
2022-12-26T00:55:36.513Z,26.10
2022-12-26T00:56:36.672Z,24.40
2022-12-26T00:57:36.822Z,24.50
2022-12-26T00:58:37.047Z,25.30
2022-12-26T00:59:37.072Z,25.60
2022-12-26T01:00:37.270Z,24.80
2022-12-26T01:01:37.496Z,25.70
2022-12-26T01:02:37.496Z,24.80
2022-12-26T01:03:37.572Z,23.40
2022-12-26T01:04:37.718Z,24.40
2022-12-26T01:05:37.846Z,25.30
2022-12-26T01:06:37.983Z,24.40
2022-12-26T01:08:19.915Z,23.50
2022-12-26T01:08:39.213Z,22.90
2022-12-26T01:09:38.350Z,23.40
2022-12-26T01:10:38.481Z,23.30
2022-12-26T01:11:38.665Z,24.20
2022-12-26T01:12:38.787Z,23.70
2022-12-26T01:13:38.948Z,23.80
2022-12-26T01:14:40.032Z,22.50
2022-12-26T01:15:39.169Z,22.10
2022-12-26T01:16:39.348Z,22.60
2022-12-26T01:17:39.545Z,23.00
2022-12-26T01:18:39.665Z,23.00
2022-12-26T01:19:40.001Z,22.10
2022-12-26T01:20:39.917Z,22.40
2022-12-26T01:21:40.074Z,22.20
2022-12-26T01:22:40.203Z,22.30
2022-12-26T01:23:40.358Z,21.80
2022-12-26T01:24:40.563Z,22.40
2022-12-26T01:26:18.228Z,21.60
2022-12-26T01:26:41.825Z,20.90
2022-12-26T01:27:40.977Z,21.90
2022-12-26T01:28:41.112Z,20.50
2022-12-26T01:29:41.270Z,19.40
2022-12-26T01:30:41.408Z,19.50
2022-12-26T01:31:41.635Z,19.70
2022-12-26T01:32:41.653Z,20.50
2022-12-26T01:33:41.781Z,19.80
2022-12-26T01:34:41.903Z,19.40
2022-12-26T01:35:42.036Z,19.90
2022-12-26T01:36:42.171Z,20.80
2022-12-26T01:37:42.348Z,21.70
2022-12-26T01:38:42.490Z,21.40
2022-12-26T01:39:42.616Z,21.30
2022-12-26T01:40:42.751Z,21.60
2022-12-26T01:41:42.914Z,20.80
2022-12-26T01:42:43.047Z,20.50
2022-12-26T01:43:43.199Z,20.30
2022-12-26T01:44:43.343Z,18.90
2022-12-26T01:45:43.571Z,20.90
2022-12-26T01:46:43.562Z,21.20
2022-12-26T01:47:43.717Z,20.20
2022-12-26T01:48:43.824Z,20.70
2022-12-26T01:49:43.966Z,20.80
2022-12-26T01:50:44.101Z,21.20
2022-12-26T01:51:44.241Z,19.20
2022-12-26T01:52:44.387Z,19.10
2022-12-26T01:53:44.533Z,19.70
2022-12-26T01:54:44.672Z,20.00
2022-12-26T01:55:44.797Z,19.50
2022-12-26T01:56:44.919Z,20.30
2022-12-26T01:57:45.061Z,19.90
2022-12-26T01:58:45.216Z,20.50
2022-12-26T01:59:45.347Z,20.80
2022-12-26T02:00:45.510Z,20.50
2022-12-26T02:01:45.834Z,19.50
2022-12-26T02:02:45.954Z,19.50
2022-12-26T02:03:46.005Z,19.10
2022-12-26T02:04:46.027Z,19.50
2022-12-26T02:05:46.156Z,20.10
2022-12-26T02:06:46.301Z,18.60
2022-12-26T02:07:46.481Z,20.00
2022-12-26T02:08:46.609Z,18.80
2022-12-26T02:09:46.775Z,19.00
2022-12-26T02:10:46.906Z,18.70
2022-12-26T02:11:47.054Z,19.00
2022-12-26T02:12:47.184Z,19.20
2022-12-26T02:13:47.328Z,18.80
2022-12-26T02:14:47.487Z,19.20
2022-12-26T02:15:47.632Z,18.60
2022-12-26T02:16:47.905Z,18.80
2022-12-26T02:17:47.901Z,19.20
2022-12-26T02:18:48.043Z,18.70
2022-12-26T02:19:48.205Z,18.20
2022-12-26T02:20:48.364Z,18.80
2022-12-26T02:21:48.522Z,18.70
2022-12-26T02:22:48.578Z,19.00
2022-12-26T02:23:48.727Z,18.80
2022-12-26T02:24:48.856Z,18.80
2022-12-26T02:25:48.993Z,18.30
2022-12-26T02:26:49.149Z,20.00
2022-12-26T02:27:49.313Z,19.20
2022-12-26T02:28:49.460Z,18.70
2022-12-26T02:29:49.592Z,18.40
2022-12-26T02:30:49.719Z,18.40
2022-12-26T02:31:49.981Z,18.50
2022-12-26T02:32:50.032Z,19.30
2022-12-26T02:33:50.181Z,19.00
2022-12-26T02:34:50.319Z,18.40
2022-12-26T02:35:50.477Z,19.20
2022-12-26T02:36:50.634Z,19.20
2022-12-26T02:37:50.768Z,19.40
2022-12-26T02:38:50.909Z,18.70
2022-12-26T02:39:51.050Z,19.80
2022-12-26T02:40:51.164Z,19.10
2022-12-26T02:41:51.409Z,18.40
2022-12-26T02:42:51.429Z,19.80
2022-12-26T02:43:51.583Z,17.90
2022-12-26T02:44:51.719Z,19.80
2022-12-26T02:45:51.940Z,18.90
2022-12-26T02:46:51.952Z,19.50
2022-12-26T02:47:52.078Z,19.40
2022-12-26T02:48:52.216Z,19.10
2022-12-26T02:49:52.360Z,19.10
2022-12-26T02:50:52.482Z,18.50
2022-12-26T02:51:52.635Z,19.40
2022-12-26T02:52:52.757Z,18.50
2022-12-26T02:53:52.910Z,19.00
2022-12-26T02:54:53.025Z,19.30
2022-12-26T02:55:53.174Z,18.90
2022-12-26T02:56:53.316Z,18.10
2022-12-26T02:57:53.454Z,19.30
2022-12-26T02:58:53.592Z,19.70
2022-12-26T02:59:56.994Z,19.10
2022-12-26T03:00:53.829Z,18.20
2022-12-26T03:01:54.194Z,18.20
2022-12-26T03:02:54.132Z,18.00
2022-12-26T03:03:54.176Z,18.80
2022-12-26T03:04:54.309Z,17.90
2022-12-26T03:05:54.447Z,19.20
2022-12-26T03:06:54.586Z,18.70
2022-12-26T03:07:54.740Z,17.50
2022-12-26T03:08:54.887Z,18.50
2022-12-26T03:09:54.998Z,18.10
2022-12-26T03:10:55.132Z,18.00
2022-12-26T03:11:55.303Z,18.10
2022-12-26T03:12:55.433Z,18.00
2022-12-26T03:13:55.568Z,18.50
2022-12-26T03:14:55.693Z,18.10
2022-12-26T03:15:55.843Z,17.40
2022-12-26T03:16:56.045Z,18.40
2022-12-26T03:17:56.079Z,17.90
2022-12-26T03:18:59.096Z,17.70
2022-12-26T03:19:56.380Z,18.30
2022-12-26T03:20:56.417Z,17.70
2022-12-26T03:21:56.607Z,17.30
2022-12-26T03:22:56.635Z,16.50
2022-12-26T03:23:56.806Z,17.30
2022-12-26T03:24:56.947Z,16.50
2022-12-26T03:25:57.109Z,16.80
2022-12-26T03:26:57.249Z,16.20
2022-12-26T03:27:57.401Z,16.70
2022-12-26T03:28:57.509Z,16.50
2022-12-26T03:29:57.644Z,17.00
2022-12-26T03:30:57.801Z,16.50
2022-12-26T03:31:57.937Z,17.50
2022-12-26T03:32:58.142Z,16.40
2022-12-26T03:33:58.180Z,16.70
2022-12-26T03:34:58.320Z,15.90
2022-12-26T03:35:59.341Z,15.90
2022-12-26T03:36:58.604Z,15.90
2022-12-26T03:37:58.770Z,16.40
2022-12-26T03:38:58.914Z,16.20
2022-12-26T03:39:59.068Z,16.20
2022-12-26T03:40:59.211Z,15.70
2022-12-26T03:41:59.362Z,16.60
2022-12-26T03:42:59.502Z,15.60
2022-12-26T03:43:59.657Z,15.80
2022-12-26T03:44:59.781Z,16.50
2022-12-26T03:46:00.077Z,16.10
2022-12-26T03:47:00.077Z,15.30
2022-12-26T03:48:00.109Z,15.40
2022-12-26T03:49:00.182Z,15.20
2022-12-26T03:50:00.329Z,15.20
2022-12-26T03:51:00.458Z,15.00
2022-12-26T03:52:00.541Z,15.70
2022-12-26T03:53:00.666Z,17.20
2022-12-26T03:54:00.829Z,15.80
2022-12-26T03:55:00.927Z,17.40
2022-12-26T03:56:01.098Z,16.40
2022-12-26T03:57:01.226Z,16.30
2022-12-26T03:58:01.364Z,16.70
2022-12-26T03:59:01.495Z,15.60
2022-12-26T04:00:01.729Z,15.30
2022-12-26T04:01:01.848Z,15.00
2022-12-26T04:02:02.029Z,15.10
2022-12-26T04:03:01.995Z,14.90
2022-12-26T04:04:02.187Z,14.20
2022-12-26T04:05:02.232Z,13.30
2022-12-26T04:06:02.365Z,13.80
2022-12-26T04:07:02.500Z,13.50
2022-12-26T04:08:02.642Z,13.00
2022-12-26T04:09:02.783Z,12.70
2022-12-26T04:10:02.901Z,12.00
2022-12-26T04:11:03.019Z,12.00
2022-12-26T04:12:03.167Z,11.70
2022-12-26T04:13:03.296Z,11.70
2022-12-26T04:14:03.414Z,11.40
2022-12-26T04:15:03.544Z,11.30
2022-12-26T04:16:03.762Z,11.50
2022-12-26T04:17:03.805Z,10.80
2022-12-26T04:18:03.941Z,10.40
2022-12-26T04:19:04.065Z,10.20
2022-12-26T04:20:04.183Z,10.40
2022-12-26T04:21:04.315Z,10.30
2022-12-26T04:22:04.458Z,10.00
2022-12-26T04:23:04.581Z,9.80
2022-12-26T04:24:04.721Z,10.20
2022-12-26T04:25:04.833Z,9.70
2022-12-26T04:26:04.967Z,9.80
2022-12-26T04:27:05.104Z,10.10
2022-12-26T04:28:05.245Z,10.10
2022-12-26T04:29:05.356Z,9.60
2022-12-26T04:30:05.489Z,10.10
2022-12-26T04:31:05.730Z,10.50
2022-12-26T04:32:05.794Z,10.30
2022-12-26T04:33:05.976Z,9.70
2022-12-26T04:34:06.157Z,10.40
2022-12-26T04:35:06.331Z,10.10
2022-12-26T04:36:06.518Z,10.40
2022-12-26T04:37:06.604Z,10.20
2022-12-26T04:38:06.734Z,10.10
2022-12-26T04:39:06.855Z,9.90
2022-12-26T04:40:06.987Z,11.10
2022-12-26T04:41:07.103Z,11.10
2022-12-26T04:42:07.259Z,10.70
2022-12-26T04:43:48.492Z,10.70
2022-12-26T04:44:08.471Z,10.30
2022-12-26T04:45:07.591Z,10.90
2022-12-26T04:46:07.746Z,10.10
2022-12-26T04:47:07.792Z,10.10
2022-12-26T04:48:07.919Z,10.70
2022-12-26T04:49:08.046Z,10.50
2022-12-26T04:50:08.196Z,10.50
2022-12-26T04:51:08.306Z,10.20
2022-12-26T04:52:08.440Z,10.10
2022-12-26T04:53:08.551Z,10.10
2022-12-26T04:54:08.684Z,10.10
2022-12-26T04:55:08.798Z,8.90
2022-12-26T04:56:08.939Z,9.40
2022-12-26T04:57:09.113Z,9.30
2022-12-26T04:58:09.231Z,9.60
2022-12-26T04:59:09.351Z,9.20
2022-12-26T05:00:09.496Z,10.70
2022-12-26T05:01:09.716Z,9.50
2022-12-26T05:02:09.934Z,8.70
2022-12-26T05:03:13.286Z,9.60
2022-12-26T05:04:11.079Z,8.70
2022-12-26T05:05:10.132Z,9.00
2022-12-26T05:06:10.301Z,8.20
2022-12-26T05:07:10.503Z,8.50
2022-12-26T05:08:10.617Z,8.70
2022-12-26T05:09:17.752Z,9.10
2022-12-26T05:10:10.872Z,9.60
2022-12-26T05:11:10.993Z,9.40
2022-12-26T05:12:12.853Z,9.80
2022-12-26T05:13:11.299Z,9.30
2022-12-26T05:14:11.434Z,9.00
2022-12-26T05:15:11.568Z,10.00
2022-12-26T05:16:11.758Z,14.20
2022-12-26T05:17:11.811Z,8.90
2022-12-26T05:18:11.937Z,10.20
2022-12-26T05:19:12.068Z,8.70
2022-12-26T05:20:12.243Z,9.00
2022-12-26T05:21:12.414Z,9.10
2022-12-26T05:22:12.571Z,8.90
2022-12-26T05:23:12.692Z,9.40
2022-12-26T05:24:12.813Z,9.30
2022-12-26T05:25:12.935Z,8.80
2022-12-26T05:26:13.101Z,9.30
2022-12-26T05:27:13.247Z,8.80
2022-12-26T05:28:13.304Z,9.10
2022-12-26T05:29:13.442Z,7.80
2022-12-26T05:30:13.566Z,8.60
2022-12-26T05:31:13.706Z,15.60
2022-12-26T05:32:13.853Z,14.40
2022-12-26T05:33:13.972Z,10.80
2022-12-26T05:34:14.118Z,8.60
2022-12-26T05:35:14.240Z,12.70
2022-12-26T05:36:14.364Z,13.00
2022-12-26T05:37:14.525Z,26.30
2022-12-26T05:38:14.653Z,8.10
2022-12-26T05:39:14.804Z,14.70
2022-12-26T05:40:14.937Z,39.10
2022-12-26T05:41:15.075Z,8.90
2022-12-26T05:42:15.225Z,7.80
2022-12-26T05:43:15.366Z,15.60
2022-12-26T05:44:15.513Z,21.50
2022-12-26T05:45:15.657Z,20.80
2022-12-26T05:46:15.902Z,10.70
2022-12-26T05:47:15.950Z,14.10
2022-12-26T05:48:16.078Z,11.90
2022-12-26T05:49:16.651Z,11.80
2022-12-26T05:50:16.327Z,14.60
2022-12-26T05:51:16.466Z,8.30
2022-12-26T05:52:16.752Z,7.20
2022-12-26T05:53:16.657Z,10.10
2022-12-26T05:54:16.781Z,14.20
2022-12-26T05:55:16.937Z,7.10
2022-12-26T05:56:17.056Z,13.70
2022-12-26T05:57:17.213Z,12.20
2022-12-26T05:58:17.332Z,16.70
2022-12-26T05:59:17.484Z,10.30
2022-12-26T06:00:17.616Z,16.50
2022-12-26T06:01:17.791Z,9.10
2022-12-26T06:02:18.029Z,8.10
2022-12-26T06:03:18.057Z,6.80
2022-12-26T06:04:18.126Z,6.80
2022-12-26T06:05:18.263Z,6.90
2022-12-26T06:06:18.406Z,5.90
2022-12-26T06:07:18.542Z,10.40
2022-12-26T06:08:18.666Z,6.00
2022-12-26T06:09:18.803Z,8.40
2022-12-26T06:10:18.919Z,8.30
2022-12-26T06:11:19.046Z,7.50
2022-12-26T06:12:20.145Z,7.20
2022-12-26T06:13:19.275Z,6.60
2022-12-26T06:14:19.417Z,6.70
2022-12-26T06:15:19.538Z,12.50
2022-12-26T06:16:19.826Z,6.60
2022-12-26T06:17:19.772Z,9.40
2022-12-26T06:18:19.897Z,5.80
2022-12-26T06:19:20.035Z,5.80
2022-12-26T06:20:20.171Z,6.90
2022-12-26T06:21:20.325Z,5.00
2022-12-26T06:22:20.448Z,6.50
2022-12-26T06:23:20.583Z,6.80
2022-12-26T06:24:20.704Z,5.30
2022-12-26T06:25:20.836Z,5.40
2022-12-26T06:26:20.979Z,5.10
2022-12-26T06:27:21.141Z,5.40
2022-12-26T06:28:21.267Z,4.90
2022-12-26T06:29:21.385Z,5.30
2022-12-26T06:30:21.510Z,4.70
2022-12-26T06:31:21.847Z,5.10
2022-12-26T06:32:21.843Z,4.90
2022-12-26T06:33:21.983Z,4.80
2022-12-26T06:34:22.107Z,4.90
2022-12-26T06:35:22.192Z,4.80
2022-12-26T06:36:22.328Z,5.20
2022-12-26T06:37:22.444Z,5.10
2022-12-26T06:38:22.569Z,4.70
2022-12-26T06:39:22.704Z,4.90
2022-12-26T06:40:22.825Z,5.70
2022-12-26T06:41:22.909Z,5.20
2022-12-26T06:42:23.038Z,6.80
2022-12-26T06:43:23.168Z,4.40
2022-12-26T06:44:23.293Z,4.90
2022-12-26T06:45:23.412Z,4.80
2022-12-26T06:46:23.600Z,4.90
2022-12-26T06:47:23.649Z,5.90
2022-12-26T06:48:23.778Z,4.60
2022-12-26T06:49:28.707Z,4.50
2022-12-26T06:50:25.014Z,4.70
2022-12-26T06:51:24.130Z,4.20
2022-12-26T06:52:24.266Z,5.50
2022-12-26T06:53:24.439Z,4.80
2022-12-26T06:54:24.549Z,4.20
2022-12-26T06:55:24.683Z,4.60
2022-12-26T06:56:24.848Z,4.50
2022-12-26T06:57:24.982Z,4.40
2022-12-26T06:58:25.099Z,4.20
2022-12-26T06:59:25.224Z,4.60
2022-12-26T07:00:25.406Z,4.60
2022-12-26T07:01:25.609Z,4.60
2022-12-26T07:02:25.788Z,4.60
2022-12-26T07:03:25.800Z,4.70
2022-12-26T07:04:25.954Z,4.50
2022-12-26T07:05:26.084Z,4.70
2022-12-26T07:06:26.222Z,4.80
2022-12-26T07:07:26.363Z,4.70
2022-12-26T07:08:26.487Z,4.50
2022-12-26T07:09:31.580Z,4.90
2022-12-26T07:10:27.714Z,4.90
2022-12-26T07:11:26.852Z,4.90
2022-12-26T07:12:26.989Z,5.00
2022-12-26T07:13:27.133Z,5.00
2022-12-26T07:14:27.262Z,5.40
2022-12-26T07:15:27.406Z,5.00
2022-12-26T07:16:27.613Z,4.90
2022-12-26T07:17:27.651Z,4.90
2022-12-26T07:18:27.813Z,4.60
2022-12-26T07:19:27.947Z,4.70
2022-12-26T07:20:28.076Z,4.60
2022-12-26T07:21:28.217Z,4.50
2022-12-26T07:22:28.376Z,4.70
2022-12-26T07:23:28.505Z,4.70
2022-12-26T07:24:28.658Z,4.80
2022-12-26T07:25:29.768Z,5.00
2022-12-26T07:26:28.908Z,4.70
2022-12-26T07:27:29.080Z,4.60
2022-12-26T07:28:29.240Z,4.40
2022-12-26T07:29:29.445Z,4.50
2022-12-26T07:30:29.505Z,4.20
2022-12-26T07:31:29.587Z,3.80
2022-12-26T07:32:29.636Z,4.40
2022-12-26T07:33:29.840Z,4.10
2022-12-26T07:34:31.832Z,4.40
2022-12-26T07:35:29.966Z,4.40
2022-12-26T07:36:30.103Z,4.40
2022-12-26T07:37:30.256Z,4.30
2022-12-26T07:38:30.394Z,4.30
2022-12-26T07:39:30.584Z,4.20
2022-12-26T07:40:30.608Z,3.90
2022-12-26T07:41:30.850Z,4.10
2022-12-26T07:42:30.909Z,4.40
2022-12-26T07:43:31.036Z,4.10
2022-12-26T07:44:31.181Z,4.30
2022-12-26T07:45:31.346Z,4.20
2022-12-26T07:46:31.532Z,4.10
2022-12-26T07:47:31.598Z,4.20
2022-12-26T07:48:31.727Z,4.10
2022-12-26T07:49:31.883Z,4.30
2022-12-26T07:50:32.044Z,4.20
2022-12-26T07:51:32.204Z,4.20
2022-12-26T07:52:32.379Z,4.30
2022-12-26T07:53:32.522Z,4.00
2022-12-26T07:54:32.649Z,4.30
2022-12-26T07:55:32.777Z,4.30
2022-12-26T07:56:32.928Z,4.30
2022-12-26T07:57:49.441Z,4.30
2022-12-26T07:58:34.194Z,4.10
2022-12-26T07:59:33.693Z,4.20
2022-12-26T08:00:33.413Z,3.80
2022-12-26T08:01:33.658Z,3.80
2022-12-26T08:02:33.845Z,4.00
2022-12-26T08:03:33.871Z,4.10
2022-12-26T08:04:33.926Z,4.30
2022-12-26T08:05:34.068Z,4.30
2022-12-26T08:06:34.210Z,4.30
2022-12-26T08:07:34.405Z,4.30
2022-12-26T08:08:34.420Z,4.20
2022-12-26T08:09:34.564Z,4.30
2022-12-26T08:10:34.748Z,4.20
2022-12-26T08:11:34.915Z,4.10
2022-12-26T08:12:35.058Z,4.00
2022-12-26T08:13:35.189Z,4.00
2022-12-26T08:14:35.330Z,3.90
2022-12-26T08:15:35.482Z,3.80
2022-12-26T08:16:35.689Z,3.50
2022-12-26T08:17:35.728Z,3.70
2022-12-26T08:18:35.856Z,3.70
2022-12-26T08:19:36.018Z,3.50
2022-12-26T08:20:36.182Z,3.80
2022-12-26T08:21:36.329Z,3.50
2022-12-26T08:22:36.485Z,3.40
2022-12-26T08:23:36.648Z,3.30
2022-12-26T08:24:36.715Z,3.60
2022-12-26T08:25:36.839Z,3.50
2022-12-26T08:26:36.951Z,3.70
2022-12-26T08:27:37.074Z,3.70
2022-12-26T08:28:37.171Z,3.30
2022-12-26T08:29:38.209Z,3.30
2022-12-26T08:30:37.360Z,3.60
2022-12-26T08:31:37.464Z,3.20
2022-12-26T08:32:39.525Z,3.20
2022-12-26T08:33:37.769Z,3.10
2022-12-26T08:34:37.914Z,3.00
2022-12-26T08:35:38.071Z,3.60
2022-12-26T08:36:38.220Z,5.20
2022-12-26T08:37:39.333Z,3.90
2022-12-26T08:38:38.454Z,4.70
2022-12-26T08:39:38.589Z,3.30
2022-12-26T08:40:43.557Z,5.60
2022-12-26T08:41:39.823Z,4.30
2022-12-26T08:42:44.580Z,3.50
2022-12-26T08:44:40.179Z,8.10
2022-12-26T08:45:39.313Z,9.80
2022-12-26T08:46:39.364Z,8.10
2022-12-26T08:47:39.524Z,6.50
2022-12-26T08:48:39.646Z,31.60
2022-12-26T08:49:39.761Z,11.90
2022-12-26T08:50:41.530Z,10.10
2022-12-26T08:51:39.995Z,12.80
2022-12-26T08:52:40.176Z,3.90
2022-12-26T08:53:40.243Z,10.60
2022-12-26T08:54:40.307Z,12.80
2022-12-26T08:55:40.470Z,18.50
2022-12-26T08:56:40.570Z,16.30
2022-12-26T08:57:40.749Z,5.40
2022-12-26T08:58:40.809Z,8.10
2022-12-26T08:59:40.910Z,48.80
2022-12-26T09:00:41.028Z,25.20
2022-12-26T09:01:41.230Z,20.60
2022-12-26T09:02:41.472Z,16.70
2022-12-26T09:03:41.507Z,8.50
2022-12-26T09:04:41.549Z,10.60
2022-12-26T09:05:41.732Z,9.50
2022-12-26T09:06:41.790Z,7.20
2022-12-26T09:07:41.971Z,11.70
2022-12-26T09:08:42.084Z,11.40
2022-12-26T09:09:42.215Z,7.60
2022-12-26T09:10:42.337Z,15.50
2022-12-26T09:11:42.472Z,7.50
2022-12-26T09:12:42.602Z,9.90
2022-12-26T09:13:42.716Z,13.00
2022-12-26T09:14:42.847Z,4.60
2022-12-26T09:15:43.004Z,4.50
2022-12-26T09:16:49.743Z,4.40
2022-12-26T09:17:44.225Z,4.20
2022-12-26T09:18:43.332Z,4.40
2022-12-26T09:19:43.481Z,4.30
2022-12-26T09:20:43.603Z,4.80
2022-12-26T09:21:43.745Z,5.00
2022-12-26T09:22:43.935Z,4.00
2022-12-26T09:23:43.979Z,4.30
2022-12-26T09:24:44.105Z,4.40
2022-12-26T09:25:44.237Z,4.20
2022-12-26T09:26:44.361Z,4.30
2022-12-26T09:27:44.504Z,4.20
2022-12-26T09:28:44.622Z,4.30
2022-12-26T09:29:44.742Z,4.50
2022-12-26T09:30:44.977Z,3.80
2022-12-26T09:31:45.035Z,4.40
2022-12-26T09:32:45.152Z,4.50
2022-12-26T09:33:45.278Z,4.30
2022-12-26T09:34:45.396Z,4.10
2022-12-26T09:35:45.527Z,4.30
2022-12-26T09:36:45.650Z,4.00
2022-12-26T09:37:45.781Z,3.90
2022-12-26T09:38:45.900Z,3.60
2022-12-26T09:39:46.089Z,3.90
2022-12-26T09:40:46.116Z,3.70
2022-12-26T09:41:46.245Z,3.30
2022-12-26T09:42:46.392Z,3.80
2022-12-26T09:43:50.042Z,3.40
2022-12-26T09:44:46.596Z,3.60
2022-12-26T09:45:46.797Z,3.80
2022-12-26T09:46:46.821Z,3.80
2022-12-26T09:47:46.946Z,3.80
2022-12-26T09:48:47.098Z,3.50
2022-12-26T09:49:47.212Z,3.50
2022-12-26T09:50:47.338Z,3.40
2022-12-26T09:51:47.479Z,3.60
2022-12-26T09:52:47.597Z,3.50
2022-12-26T09:53:47.712Z,3.80
2022-12-26T09:54:47.826Z,3.30
2022-12-26T09:55:47.930Z,3.30
2022-12-26T09:57:05.370Z,3.50
2022-12-26T09:57:49.118Z,3.00
2022-12-26T09:58:48.230Z,4.40
2022-12-26T09:59:48.328Z,3.20
2022-12-26T10:00:48.454Z,3.90
2022-12-26T10:01:48.623Z,6.10
2022-12-26T10:02:48.692Z,5.80
2022-12-26T10:03:48.828Z,3.50
2022-12-26T10:04:49.031Z,3.60
2022-12-26T10:05:49.050Z,4.20
2022-12-26T10:06:49.182Z,3.50
2022-12-26T10:07:49.301Z,3.30
2022-12-26T10:08:49.420Z,3.20
2022-12-26T10:09:49.544Z,6.60
2022-12-26T10:10:49.683Z,13.70
2022-12-26T10:11:49.814Z,7.80
2022-12-26T10:12:49.995Z,9.40
2022-12-26T10:13:50.003Z,8.00
2022-12-26T10:14:50.138Z,11.50
2022-12-26T10:15:50.305Z,5.90
2022-12-26T10:16:50.412Z,11.00
2022-12-26T10:17:50.535Z,7.50
2022-12-26T10:18:50.662Z,4.60
2022-12-26T10:19:50.788Z,4.60
2022-12-26T10:20:50.897Z,7.40
2022-12-26T10:21:51.019Z,4.50
2022-12-26T10:22:51.141Z,4.80
2022-12-26T10:23:51.243Z,4.10
2022-12-26T10:24:52.035Z,3.20
2022-12-26T10:25:51.505Z,3.10
2022-12-26T10:26:51.643Z,3.30
2022-12-26T10:27:51.732Z,3.40
2022-12-26T10:28:51.865Z,3.10
2022-12-26T10:29:51.981Z,3.00
2022-12-26T10:30:52.142Z,3.30
2022-12-26T10:31:52.253Z,3.20
2022-12-26T10:32:52.420Z,3.00
2022-12-26T10:33:52.442Z,3.20
2022-12-26T10:34:52.571Z,2.80
2022-12-26T10:35:52.696Z,3.10
2022-12-26T10:36:52.838Z,2.60
2022-12-26T10:37:52.952Z,3.30
2022-12-26T10:38:53.116Z,3.00
2022-12-26T10:39:53.228Z,2.60
2022-12-26T10:40:53.328Z,2.80
2022-12-26T10:41:53.473Z,2.90
2022-12-26T10:42:53.596Z,3.00
2022-12-26T10:43:53.795Z,3.40
2022-12-26T10:44:53.797Z,2.70
2022-12-26T10:45:53.928Z,3.70
2022-12-26T10:46:54.048Z,3.00
2022-12-26T10:47:54.181Z,2.80
2022-12-26T10:48:54.307Z,3.30
2022-12-26T10:49:54.427Z,3.20
2022-12-26T10:50:54.547Z,2.40
2022-12-26T10:51:54.679Z,2.80
2022-12-26T10:52:55.338Z,2.50
2022-12-26T10:53:54.939Z,2.50
2022-12-26T10:55:29.612Z,2.90
2022-12-26T10:55:56.105Z,2.80
2022-12-26T10:56:55.218Z,2.50
2022-12-26T10:57:55.341Z,2.70
2022-12-26T10:58:55.381Z,3.00
2022-12-26T10:59:55.561Z,2.70
2022-12-26T11:00:55.652Z,3.00
2022-12-26T11:01:55.818Z,2.80
2022-12-26T11:02:56.000Z,2.70
2022-12-26T11:03:56.069Z,2.80
2022-12-26T11:05:13.556Z,3.10
2022-12-26T11:06:07.348Z,3.30
2022-12-26T11:06:57.269Z,2.80
2022-12-26T11:07:56.383Z,2.70
2022-12-26T11:08:56.501Z,2.90
2022-12-26T11:10:03.628Z,10.30
2022-12-26T11:10:56.735Z,4.50
2022-12-26T11:11:56.855Z,4.00
2022-12-26T11:12:56.976Z,3.70
2022-12-26T11:14:01.852Z,2.70
2022-12-26T11:14:58.188Z,3.00
2022-12-26T11:15:57.341Z,3.00
2022-12-26T11:16:57.458Z,2.60
2022-12-26T11:17:57.584Z,2.90
2022-12-26T11:18:57.735Z,3.00
2022-12-26T11:19:57.847Z,3.00
2022-12-26T11:20:58.303Z,3.80
2022-12-26T11:21:58.083Z,2.80
2022-12-26T11:22:58.220Z,2.90
2022-12-26T11:23:58.349Z,2.90
2022-12-26T11:24:58.481Z,2.50
2022-12-26T11:25:58.602Z,2.90
2022-12-26T11:26:58.718Z,2.60
2022-12-26T11:27:58.827Z,2.80
2022-12-26T11:28:58.990Z,3.00
2022-12-26T11:29:59.113Z,2.80
2022-12-26T11:30:59.334Z,4.80
2022-12-26T11:31:59.435Z,2.70
2022-12-26T11:32:59.523Z,7.10
2022-12-26T11:33:59.586Z,2.70
2022-12-26T11:34:59.647Z,4.60
2022-12-26T11:35:59.709Z,3.30
2022-12-26T11:36:59.787Z,3.30
2022-12-26T11:37:59.887Z,4.20
2022-12-26T11:39:00.077Z,4.30
2022-12-26T11:40:00.999Z,5.10
2022-12-26T11:41:00.251Z,5.30
2022-12-26T11:42:00.393Z,4.40
2022-12-26T11:43:00.589Z,5.40
2022-12-26T11:44:00.741Z,6.60
2022-12-26T11:45:00.879Z,28.40
2022-12-26T11:46:00.947Z,11.80
2022-12-26T11:47:01.022Z,9.60
2022-12-26T11:48:01.133Z,12.80
2022-12-26T11:49:01.287Z,4.20
2022-12-26T11:50:01.393Z,5.70
2022-12-26T11:51:01.523Z,16.80
2022-12-26T11:52:01.598Z,5.60
2022-12-26T11:53:01.724Z,6.40
2022-12-26T11:54:01.852Z,4.40
2022-12-26T11:55:02.009Z,4.20
2022-12-26T11:56:02.141Z,10.50
2022-12-26T11:57:02.261Z,4.70
2022-12-26T11:58:02.374Z,7.80
2022-12-26T11:59:02.533Z,4.80
2022-12-26T12:00:02.654Z,8.60
2022-12-26T12:01:02.772Z,11.70
2022-12-26T12:02:02.975Z,9.10
2022-12-26T12:03:03.013Z,5.50
2022-12-26T12:04:03.153Z,3.70
2022-12-26T12:05:03.261Z,4.20
2022-12-26T12:06:03.363Z,3.40
2022-12-26T12:07:03.478Z,6.30
2022-12-26T12:08:03.608Z,3.40
2022-12-26T12:09:06.048Z,3.20
2022-12-26T12:10:03.892Z,3.20
2022-12-26T12:11:04.028Z,4.50
2022-12-26T12:12:04.143Z,5.80
2022-12-26T12:13:04.259Z,4.30
2022-12-26T12:14:04.408Z,3.20
2022-12-26T12:15:04.524Z,3.80
2022-12-26T12:16:04.725Z,3.90
2022-12-26T12:17:04.728Z,5.50
2022-12-26T12:18:04.833Z,3.40
2022-12-26T12:19:04.981Z,3.90
2022-12-26T12:20:05.658Z,5.50
2022-12-26T12:21:05.235Z,9.40
2022-12-26T12:22:05.336Z,4.60
2022-12-26T12:23:05.466Z,5.50
2022-12-26T12:24:05.622Z,4.00
2022-12-26T12:25:05.745Z,4.10
2022-12-26T12:26:05.850Z,3.80
2022-12-26T12:27:05.992Z,6.00
2022-12-26T12:28:06.125Z,5.30
2022-12-26T12:29:06.300Z,3.40
2022-12-26T12:30:06.437Z,3.10
2022-12-26T12:31:06.537Z,3.40
2022-12-26T12:32:07.204Z,5.10
2022-12-26T12:33:06.801Z,4.60
2022-12-26T12:34:06.936Z,4.50
2022-12-26T12:35:07.095Z,5.70
2022-12-26T12:36:07.239Z,3.30
2022-12-26T12:37:07.373Z,4.20
2022-12-26T12:38:07.514Z,5.00
2022-12-26T12:39:07.659Z,8.00
2022-12-26T12:40:07.799Z,4.40
2022-12-26T12:41:07.942Z,4.30
2022-12-26T12:42:08.077Z,5.00
2022-12-26T12:43:08.197Z,4.20
2022-12-26T12:44:08.332Z,3.10
2022-12-26T12:45:08.453Z,5.10
2022-12-26T12:46:08.693Z,3.90
2022-12-26T12:47:08.692Z,23.90
2022-12-26T12:48:08.807Z,12.30
2022-12-26T12:49:08.949Z,17.20
2022-12-26T12:50:09.081Z,49.20
2022-12-26T12:51:09.196Z,35.90
2022-12-26T12:52:09.321Z,8.60
2022-12-26T12:53:09.461Z,43.30
2022-12-26T12:54:09.589Z,7.50
2022-12-26T12:55:09.735Z,75.20
2022-12-26T12:56:09.849Z,16.40
2022-12-26T12:57:09.979Z,7.30
2022-12-26T12:58:10.091Z,12.40
2022-12-26T12:59:10.254Z,5.40
2022-12-26T13:00:10.396Z,8.10
2022-12-26T13:01:10.577Z,18.20
2022-12-26T13:02:15.396Z,12.80
2022-12-26T13:03:11.822Z,9.50
2022-12-26T13:04:10.887Z,8.40
2022-12-26T13:05:10.952Z,4.50
2022-12-26T13:06:11.090Z,5.50
2022-12-26T13:07:11.264Z,5.60
2022-12-26T13:08:11.457Z,7.40
2022-12-26T13:09:11.509Z,14.80